sensor_id;sensor_type;location;lat;lon;timestamp;temperature;humidity
2913;DHT22;1466;48.778;9.166;2022-11-12T00:00:32;10.40;99.90
2913;DHT22;1466;48.778;9.166;2022-11-12T00:02:58;10.40;99.90
2913;DHT22;1466;48.778;9.166;2022-11-12T00:05:24;10.40;99.90
2913;DHT22;1466;48.778;9.166;2022-11-12T00:07:50;10.30;99.90
2913;DHT22;1466;48.778;9.166;2022-11-12T00:10:16;10.30;99.90
2913;DHT22;1466;48.778;9.166;2022-11-12T00:12:41;10.20;99.90
2913;DHT22;1466;48.778;9.166;2022-11-12T00:15:07;10.20;99.90
2913;DHT22;1466;48.778;9.166;2022-11-12T00:17:35;10.20;99.90
2913;DHT22;1466;48.778;9.166;2022-11-12T00:20:00;10.20;99.90
2913;DHT22;1466;48.778;9.166;2022-11-12T00:22:26;10.20;99.90
2913;DHT22;1466;48.778;9.166;2022-11-12T00:24:52;10.20;99.90
2913;DHT22;1466;48.778;9.166;2022-11-12T00:27:17;10.20;99.90
2913;DHT22;1466;48.778;9.166;2022-11-12T00:29:43;10.10;99.90
2913;DHT22;1466;48.778;9.166;2022-11-12T00:32:09;10.10;99.90
2913;DHT22;1466;48.778;9.166;2022-11-12T00:34:34;10.20;99.90
2913;DHT22;1466;48.778;9.166;2022-11-12T00:37:00;10.20;99.90
2913;DHT22;1466;48.778;9.166;2022-11-12T00:39:26;10.20;99.90
2913;DHT22;1466;48.778;9.166;2022-11-12T00:41:52;10.20;99.90
2913;DHT22;1466;48.778;9.166;2022-11-12T00:44:18;10.10;99.90
2913;DHT22;1466;48.778;9.166;2022-11-12T00:46:43;10.10;99.90
2913;DHT22;1466;48.778;9.166;2022-11-12T00:49:09;10.00;99.90
2913;DHT22;1466;48.778;9.166;2022-11-12T00:51:35;10.00;99.90
2913;DHT22;1466;48.778;9.166;2022-11-12T00:54:01;10.00;99.90
2913;DHT22;1466;48.778;9.166;2022-11-12T00:56:26;10.00;99.90
2913;DHT22;1466;48.778;9.166;2022-11-12T00:58:52;10.00;99.90
2913;DHT22;1466;48.778;9.166;2022-11-12T01:01:18;10.10;99.90
2913;DHT22;1466;48.778;9.166;2022-11-12T01:03:44;10.10;99.90
2913;DHT22;1466;48.778;9.166;2022-11-12T01:06:12;10.10;99.90
2913;DHT22;1466;48.778;9.166;2022-11-12T01:08:38;10.00;99.90
2913;DHT22;1466;48.778;9.166;2022-11-12T01:11:13;10.00;99.90
2913;DHT22;1466;48.778;9.166;2022-11-12T01:13:40;10.00;99.90
2913;DHT22;1466;48.778;9.166;2022-11-12T01:16:13;10.00;99.90
2913;DHT22;1466;48.778;9.166;2022-11-12T01:18:39;10.00;99.90
2913;DHT22;1466;48.778;9.166;2022-11-12T01:21:06;9.90;99.90
2913;DHT22;1466;48.778;9.166;2022-11-12T01:23:33;9.80;99.90
2913;DHT22;1466;48.778;9.166;2022-11-12T01:26:11;9.80;99.90
2913;DHT22;1466;48.778;9.166;2022-11-12T01:28:37;9.80;99.90
2913;DHT22;1466;48.778;9.166;2022-11-12T01:31:30;9.80;99.90
2913;DHT22;1466;48.778;9.166;2022-11-12T01:33:58;9.80;99.90
2913;DHT22;1466;48.778;9.166;2022-11-12T01:36:29;9.70;99.90
2913;DHT22;1466;48.778;9.166;2022-11-12T01:38:55;9.80;99.90
2913;DHT22;1466;48.778;9.166;2022-11-12T01:41:24;9.70;99.90
2913;DHT22;1466;48.778;9.166;2022-11-12T01:44:09;9.70;99.90
2913;DHT22;1466;48.778;9.166;2022-11-12T01:46:51;9.60;99.90
2913;DHT22;1466;48.778;9.166;2022-11-12T01:49:22;9.60;99.90
2913;DHT22;1466;48.778;9.166;2022-11-12T01:51:50;9.60;99.90
2913;DHT22;1466;48.778;9.166;2022-11-12T01:54:19;9.60;99.90
2913;DHT22;1466;48.778;9.166;2022-11-12T01:56:46;9.60;99.90
2913;DHT22;1466;48.778;9.166;2022-11-12T01:59:18;9.60;99.90
2913;DHT22;1466;48.778;9.166;2022-11-12T02:01:44;9.60;99.90
2913;DHT22;1466;48.778;9.166;2022-11-12T02:04:10;9.60;99.90
2913;DHT22;1466;48.778;9.166;2022-11-12T02:06:36;9.60;99.90
2913;DHT22;1466;48.778;9.166;2022-11-12T02:09:04;9.60;99.90
2913;DHT22;1466;48.778;9.166;2022-11-12T02:11:30;9.50;99.90
2913;DHT22;1466;48.778;9.166;2022-11-12T02:13:56;9.50;99.90
2913;DHT22;1466;48.778;9.166;2022-11-12T02:16:34;9.60;99.90
2913;DHT22;1466;48.778;9.166;2022-11-12T02:19:01;9.40;99.90
2913;DHT22;1466;48.778;9.166;2022-11-12T02:21:28;9.30;99.90
2913;DHT22;1466;48.778;9.166;2022-11-12T02:26:49;9.30;99.90
2913;DHT22;1466;48.778;9.166;2022-11-12T02:29:16;9.30;99.90
2913;DHT22;1466;48.778;9.166;2022-11-12T02:31:42;9.20;99.90
2913;DHT22;1466;48.778;9.166;2022-11-12T02:34:07;9.30;99.90
2913;DHT22;1466;48.778;9.166;2022-11-12T02:36:33;9.30;99.90
2913;DHT22;1466;48.778;9.166;2022-11-12T02:38:59;9.30;99.90
2913;DHT22;1466;48.778;9.166;2022-11-12T02:41:25;9.20;99.90
2913;DHT22;1466;48.778;9.166;2022-11-12T02:43:50;9.10;99.90
2913;DHT22;1466;48.778;9.166;2022-11-12T02:46:16;9.10;99.90
2913;DHT22;1466;48.778;9.166;2022-11-12T02:48:41;9.00;99.90
2913;DHT22;1466;48.778;9.166;2022-11-12T02:51:07;9.00;99.90
2913;DHT22;1466;48.778;9.166;2022-11-12T02:53:33;9.00;99.90
2913;DHT22;1466;48.778;9.166;2022-11-12T02:55:59;9.00;99.90
2913;DHT22;1466;48.778;9.166;2022-11-12T02:58:26;8.90;99.90
2913;DHT22;1466;48.778;9.166;2022-11-12T03:00:52;9.00;99.90
2913;DHT22;1466;48.778;9.166;2022-11-12T03:03:17;9.00;99.90
2913;DHT22;1466;48.778;9.166;2022-11-12T03:05:44;9.10;99.90
2913;DHT22;1466;48.778;9.166;2022-11-12T03:08:10;9.10;99.90
2913;DHT22;1466;48.778;9.166;2022-11-12T03:10:37;9.10;99.90
2913;DHT22;1466;48.778;9.166;2022-11-12T03:13:03;9.10;99.90
2913;DHT22;1466;48.778;9.166;2022-11-12T03:15:29;9.00;99.90
2913;DHT22;1466;48.778;9.166;2022-11-12T03:17:59;9.00;99.90
2913;DHT22;1466;48.778;9.166;2022-11-12T03:20:25;9.00;99.90
2913;DHT22;1466;48.778;9.166;2022-11-12T03:22:58;8.90;99.90
2913;DHT22;1466;48.778;9.166;2022-11-12T03:25:25;8.90;99.90
2913;DHT22;1466;48.778;9.166;2022-11-12T03:28:03;8.90;99.90
2913;DHT22;1466;48.778;9.166;2022-11-12T03:30:31;8.90;99.90
2913;DHT22;1466;48.778;9.166;2022-11-12T03:32:57;8.80;99.90
2913;DHT22;1466;48.778;9.166;2022-11-12T03:35:23;8.80;99.90
2913;DHT22;1466;48.778;9.166;2022-11-12T03:37:48;8.80;99.90
2913;DHT22;1466;48.778;9.166;2022-11-12T03:40:15;8.80;99.90
2913;DHT22;1466;48.778;9.166;2022-11-12T03:42:45;8.80;99.90
2913;DHT22;1466;48.778;9.166;2022-11-12T03:45:12;8.80;99.90
2913;DHT22;1466;48.778;9.166;2022-11-12T03:47:45;8.80;99.90
2913;DHT22;1466;48.778;9.166;2022-11-12T03:50:12;8.80;99.90
2913;DHT22;1466;48.778;9.166;2022-11-12T03:52:38;8.80;99.90
2913;DHT22;1466;48.778;9.166;2022-11-12T03:55:08;8.70;99.90
2913;DHT22;1466;48.778;9.166;2022-11-12T03:57:33;8.60;99.90
2913;DHT22;1466;48.778;9.166;2022-11-12T03:59:59;8.60;99.90
2913;DHT22;1466;48.778;9.166;2022-11-12T04:02:24;8.60;99.90
2913;DHT22;1466;48.778;9.166;2022-11-12T04:04:52;8.60;99.90
2913;DHT22;1466;48.778;9.166;2022-11-12T04:07:36;8.60;99.90
2913;DHT22;1466;48.778;9.166;2022-11-12T04:10:20;8.60;99.90
2913;DHT22;1466;48.778;9.166;2022-11-12T04:12:45;8.60;99.90
2913;DHT22;1466;48.778;9.166;2022-11-12T04:15:29;8.60;99.90
2913;DHT22;1466;48.778;9.166;2022-11-12T04:17:55;8.60;99.90
2913;DHT22;1466;48.778;9.166;2022-11-12T04:20:39;8.60;99.90
2913;DHT22;1466;48.778;9.166;2022-11-12T04:23:23;8.60;99.90
2913;DHT22;1466;48.778;9.166;2022-11-12T04:25:48;8.60;99.90
2913;DHT22;1466;48.778;9.166;2022-11-12T04:28:32;8.60;99.90
2913;DHT22;1466;48.778;9.166;2022-11-12T04:30:58;8.50;99.90
2913;DHT22;1466;48.778;9.166;2022-11-12T04:33:23;8.50;99.90
2913;DHT22;1466;48.778;9.166;2022-11-12T04:35:49;8.50;99.90
2913;DHT22;1466;48.778;9.166;2022-11-12T04:38:14;8.50;99.90
2913;DHT22;1466;48.778;9.166;2022-11-12T04:40:40;8.40;99.90
2913;DHT22;1466;48.778;9.166;2022-11-12T04:43:24;8.30;99.90
2913;DHT22;1466;48.778;9.166;2022-11-12T04:46:08;8.30;99.90
2913;DHT22;1466;48.778;9.166;2022-11-12T04:48:34;8.30;99.90
2913;DHT22;1466;48.778;9.166;2022-11-12T04:51:02;8.30;99.90
2913;DHT22;1466;48.778;9.166;2022-11-12T04:53:48;8.20;99.90
2913;DHT22;1466;48.778;9.166;2022-11-12T04:56:13;8.20;99.90
2913;DHT22;1466;48.778;9.166;2022-11-12T04:58:39;8.20;99.90
2913;DHT22;1466;48.778;9.166;2022-11-12T05:01:04;8.30;99.90
2913;DHT22;1466;48.778;9.166;2022-11-12T05:03:30;8.40;99.90
2913;DHT22;1466;48.778;9.166;2022-11-12T05:06:05;8.30;99.90
2913;DHT22;1466;48.778;9.166;2022-11-12T05:08:51;8.40;99.90
2913;DHT22;1466;48.778;9.166;2022-11-12T05:11:16;8.40;99.90
2913;DHT22;1466;48.778;9.166;2022-11-12T05:13:42;8.50;99.90
2913;DHT22;1466;48.778;9.166;2022-11-12T05:16:07;8.50;99.90
2913;DHT22;1466;48.778;9.166;2022-11-12T05:18:33;8.40;99.90
2913;DHT22;1466;48.778;9.166;2022-11-12T05:20:58;8.40;99.90
2913;DHT22;1466;48.778;9.166;2022-11-12T05:23:44;8.40;99.90
2913;DHT22;1466;48.778;9.166;2022-11-12T05:26:09;8.40;99.90
2913;DHT22;1466;48.778;9.166;2022-11-12T05:28:35;8.40;99.90
2913;DHT22;1466;48.778;9.166;2022-11-12T05:31:01;8.40;99.90
2913;DHT22;1466;48.778;9.166;2022-11-12T05:33:26;8.30;99.90
2913;DHT22;1466;48.778;9.166;2022-11-12T05:35:55;8.30;99.90
2913;DHT22;1466;48.778;9.166;2022-11-12T05:38:20;8.20;99.90
2913;DHT22;1466;48.778;9.166;2022-11-12T05:40:46;8.20;99.90
2913;DHT22;1466;48.778;9.166;2022-11-12T05:43:11;8.20;99.90
2913;DHT22;1466;48.778;9.166;2022-11-12T05:45:37;8.10;99.90
2913;DHT22;1466;48.778;9.166;2022-11-12T05:48:03;8.10;99.90
2913;DHT22;1466;48.778;9.166;2022-11-12T05:50:28;8.10;99.90
2913;DHT22;1466;48.778;9.166;2022-11-12T05:52:54;8.00;99.90
2913;DHT22;1466;48.778;9.166;2022-11-12T05:55:19;8.00;99.90
2913;DHT22;1466;48.778;9.166;2022-11-12T05:57:45;7.90;99.90
2913;DHT22;1466;48.778;9.166;2022-11-12T06:00:12;8.00;99.90
2913;DHT22;1466;48.778;9.166;2022-11-12T06:02:37;8.00;99.90
2913;DHT22;1466;48.778;9.166;2022-11-12T06:05:03;8.00;99.90
2913;DHT22;1466;48.778;9.166;2022-11-12T06:07:29;8.00;99.90
2913;DHT22;1466;48.778;9.166;2022-11-12T06:09:54;8.00;99.90
2913;DHT22;1466;48.778;9.166;2022-11-12T06:12:20;8.00;99.90
2913;DHT22;1466;48.778;9.166;2022-11-12T06:14:45;8.10;99.90
2913;DHT22;1466;48.778;9.166;2022-11-12T06:17:11;8.10;99.90
2913;DHT22;1466;48.778;9.166;2022-11-12T06:19:36;8.20;99.90
2913;DHT22;1466;48.778;9.166;2022-11-12T06:22:02;8.20;99.90
2913;DHT22;1466;48.778;9.166;2022-11-12T06:24:27;8.20;99.90
2913;DHT22;1466;48.778;9.166;2022-11-12T06:26:54;8.20;99.90
2913;DHT22;1466;48.778;9.166;2022-11-12T06:29:20;8.20;99.90
2913;DHT22;1466;48.778;9.166;2022-11-12T06:31:45;8.10;99.90
2913;DHT22;1466;48.778;9.166;2022-11-12T06:34:11;8.10;99.90
2913;DHT22;1466;48.778;9.166;2022-11-12T06:36:37;8.00;99.90
2913;DHT22;1466;48.778;9.166;2022-11-12T06:39:02;7.90;99.90
2913;DHT22;1466;48.778;9.166;2022-11-12T06:41:28;7.90;99.90
2913;DHT22;1466;48.778;9.166;2022-11-12T06:43:53;7.90;99.90
2913;DHT22;1466;48.778;9.166;2022-11-12T06:46:19;8.00;99.90
2913;DHT22;1466;48.778;9.166;2022-11-12T06:48:45;8.00;99.90
2913;DHT22;1466;48.778;9.166;2022-11-12T06:51:15;8.10;99.90
2913;DHT22;1466;48.778;9.166;2022-11-12T06:53:41;8.10;99.90
2913;DHT22;1466;48.778;9.166;2022-11-12T06:56:07;8.20;99.90
2913;DHT22;1466;48.778;9.166;2022-11-12T06:58:33;8.30;99.90
2913;DHT22;1466;48.778;9.166;2022-11-12T07:01:07;8.30;99.90
2913;DHT22;1466;48.778;9.166;2022-11-12T07:03:33;8.30;99.90
2913;DHT22;1466;48.778;9.166;2022-11-12T07:06:03;8.30;99.90
2913;DHT22;1466;48.778;9.166;2022-11-12T07:08:29;8.30;99.90
2913;DHT22;1466;48.778;9.166;2022-11-12T07:10:56;8.30;99.90
2913;DHT22;1466;48.778;9.166;2022-11-12T07:13:22;8.30;99.90
2913;DHT22;1466;48.778;9.166;2022-11-12T07:15:47;8.30;99.90
2913;DHT22;1466;48.778;9.166;2022-11-12T07:18:13;8.30;99.90
2913;DHT22;1466;48.778;9.166;2022-11-12T07:20:38;8.40;99.90
2913;DHT22;1466;48.778;9.166;2022-11-12T07:23:04;8.40;99.90
2913;DHT22;1466;48.778;9.166;2022-11-12T07:25:29;8.40;99.90
2913;DHT22;1466;48.778;9.166;2022-11-12T07:27:55;8.40;99.90
2913;DHT22;1466;48.778;9.166;2022-11-12T07:30:21;8.40;99.90
2913;DHT22;1466;48.778;9.166;2022-11-12T07:32:46;8.50;99.90
2913;DHT22;1466;48.778;9.166;2022-11-12T07:35:12;8.60;99.90
2913;DHT22;1466;48.778;9.166;2022-11-12T07:37:37;8.60;99.90
2913;DHT22;1466;48.778;9.166;2022-11-12T07:40:04;8.60;99.90
2913;DHT22;1466;48.778;9.166;2022-11-12T07:42:33;8.60;99.90
2913;DHT22;1466;48.778;9.166;2022-11-12T07:44:59;8.70;99.90
2913;DHT22;1466;48.778;9.166;2022-11-12T07:47:26;8.70;99.90
2913;DHT22;1466;48.778;9.166;2022-11-12T07:49:51;8.70;99.90
2913;DHT22;1466;48.778;9.166;2022-11-12T07:52:17;8.70;99.90
2913;DHT22;1466;48.778;9.166;2022-11-12T07:54:43;8.60;99.90
2913;DHT22;1466;48.778;9.166;2022-11-12T07:57:08;8.70;99.90
2913;DHT22;1466;48.778;9.166;2022-11-12T07:59:34;8.70;99.90
2913;DHT22;1466;48.778;9.166;2022-11-12T08:01:59;8.70;99.90
2913;DHT22;1466;48.778;9.166;2022-11-12T08:04:25;8.70;99.90
2913;DHT22;1466;48.778;9.166;2022-11-12T08:06:50;8.70;99.90
2913;DHT22;1466;48.778;9.166;2022-11-12T08:09:16;8.70;99.90
2913;DHT22;1466;48.778;9.166;2022-11-12T08:11:42;8.80;99.90
2913;DHT22;1466;48.778;9.166;2022-11-12T08:14:07;8.80;99.90
2913;DHT22;1466;48.778;9.166;2022-11-12T08:16:33;8.80;99.90
2913;DHT22;1466;48.778;9.166;2022-11-12T08:18:59;8.80;99.90
2913;DHT22;1466;48.778;9.166;2022-11-12T08:21:25;8.90;99.90
2913;DHT22;1466;48.778;9.166;2022-11-12T08:23:51;8.90;99.90
2913;DHT22;1466;48.778;9.166;2022-11-12T08:26:18;9.00;99.90
2913;DHT22;1466;48.778;9.166;2022-11-12T08:28:44;9.10;99.90
2913;DHT22;1466;48.778;9.166;2022-11-12T08:31:15;9.20;99.90
2913;DHT22;1466;48.778;9.166;2022-11-12T08:33:41;9.20;99.90
2913;DHT22;1466;48.778;9.166;2022-11-12T08:36:10;9.20;99.90
2913;DHT22;1466;48.778;9.166;2022-11-12T08:38:36;9.20;99.90
2913;DHT22;1466;48.778;9.166;2022-11-12T08:41:06;9.30;99.90
2913;DHT22;1466;48.778;9.166;2022-11-12T08:43:31;9.40;99.90
2913;DHT22;1466;48.778;9.166;2022-11-12T08:45:58;9.40;99.90
2913;DHT22;1466;48.778;9.166;2022-11-12T08:48:26;9.50;99.90
2913;DHT22;1466;48.778;9.166;2022-11-12T08:50:52;9.50;99.90
2913;DHT22;1466;48.778;9.166;2022-11-12T08:53:19;9.50;99.90
2913;DHT22;1466;48.778;9.166;2022-11-12T08:55:45;9.60;99.90
2913;DHT22;1466;48.778;9.166;2022-11-12T08:58:10;9.60;99.90
2913;DHT22;1466;48.778;9.166;2022-11-12T09:00:41;9.60;99.90
2913;DHT22;1466;48.778;9.166;2022-11-12T09:03:13;9.60;99.90
2913;DHT22;1466;48.778;9.166;2022-11-12T09:05:40;9.70;99.90
2913;DHT22;1466;48.778;9.166;2022-11-12T09:08:08;9.80;99.90
2913;DHT22;1466;48.778;9.166;2022-11-12T09:10:35;9.80;99.90
2913;DHT22;1466;48.778;9.166;2022-11-12T09:13:01;10.00;99.90
2913;DHT22;1466;48.778;9.166;2022-11-12T09:15:28;10.00;99.90
2913;DHT22;1466;48.778;9.166;2022-11-12T09:17:55;10.10;99.90
2913;DHT22;1466;48.778;9.166;2022-11-12T09:20:22;10.20;99.90
2913;DHT22;1466;48.778;9.166;2022-11-12T09:22:48;10.30;99.90
2913;DHT22;1466;48.778;9.166;2022-11-12T09:25:13;10.30;99.90
2913;DHT22;1466;48.778;9.166;2022-11-12T09:27:39;10.40;99.90
2913;DHT22;1466;48.778;9.166;2022-11-12T09:30:05;10.40;99.90
2913;DHT22;1466;48.778;9.166;2022-11-12T09:32:31;10.50;99.90
2913;DHT22;1466;48.778;9.166;2022-11-12T09:34:57;10.60;99.90
2913;DHT22;1466;48.778;9.166;2022-11-12T09:37:23;10.70;99.90
2913;DHT22;1466;48.778;9.166;2022-11-12T09:39:48;10.70;99.90
2913;DHT22;1466;48.778;9.166;2022-11-12T09:42:17;10.80;99.90
2913;DHT22;1466;48.778;9.166;2022-11-12T09:44:48;10.80;99.90
2913;DHT22;1466;48.778;9.166;2022-11-12T09:47:25;10.90;99.90
2913;DHT22;1466;48.778;9.166;2022-11-12T09:52:40;10.90;99.90
2913;DHT22;1466;48.778;9.166;2022-11-12T09:57:37;11.00;99.90
2913;DHT22;1466;48.778;9.166;2022-11-12T10:00:12;11.00;99.90
2913;DHT22;1466;48.778;9.166;2022-11-12T10:02:43;11.00;99.90
2913;DHT22;1466;48.778;9.166;2022-11-12T10:10:43;11.30;99.90
2913;DHT22;1466;48.778;9.166;2022-11-12T10:13:23;11.40;99.90
2913;DHT22;1466;48.778;9.166;2022-11-12T10:24:34;11.80;99.90
2913;DHT22;1466;48.778;9.166;2022-11-12T10:27:10;11.80;99.90
2913;DHT22;1466;48.778;9.166;2022-11-12T10:29:45;11.90;99.90
2913;DHT22;1466;48.778;9.166;2022-11-12T10:32:14;11.90;99.90
2913;DHT22;1466;48.778;9.166;2022-11-12T10:34:40;12.00;99.90
2913;DHT22;1466;48.778;9.166;2022-11-12T10:37:39;12.10;99.90
2913;DHT22;1466;48.778;9.166;2022-11-12T10:39:59;12.10;99.90
2913;DHT22;1466;48.778;9.166;2022-11-12T10:43:00;12.20;99.90
2913;DHT22;1466;48.778;9.166;2022-11-12T10:45:26;12.30;99.90
2913;DHT22;1466;48.778;9.166;2022-11-12T10:47:52;12.40;99.90
2913;DHT22;1466;48.778;9.166;2022-11-12T10:50:33;12.50;99.90
2913;DHT22;1466;48.778;9.166;2022-11-12T10:53:05;12.60;99.90
2913;DHT22;1466;48.778;9.166;2022-11-12T10:55:37;12.70;99.90
2913;DHT22;1466;48.778;9.166;2022-11-12T11:00:34;12.70;99.90
2913;DHT22;1466;48.778;9.166;2022-11-12T11:03:18;12.80;99.90
2913;DHT22;1466;48.778;9.166;2022-11-12T11:08:38;12.80;99.90
2913;DHT22;1466;48.778;9.166;2022-11-12T11:11:17;12.90;99.90
2913;DHT22;1466;48.778;9.166;2022-11-12T11:13:45;12.90;99.90
2913;DHT22;1466;48.778;9.166;2022-11-12T11:16:17;13.00;99.90
2913;DHT22;1466;48.778;9.166;2022-11-12T11:18:47;13.30;99.90
2913;DHT22;1466;48.778;9.166;2022-11-12T11:43:48;13.10;99.90
2913;DHT22;1466;48.778;9.166;2022-11-12T11:56:48;13.10;99.90
2913;DHT22;1466;48.778;9.166;2022-11-12T11:59:26;13.20;99.90
2913;DHT22;1466;48.778;9.166;2022-11-12T12:13:05;13.50;99.90
2913;DHT22;1466;48.778;9.166;2022-11-12T12:18:33;13.50;99.90
2913;DHT22;1466;48.778;9.166;2022-11-12T12:21:08;13.50;99.90
2913;DHT22;1466;48.778;9.166;2022-11-12T12:23:48;13.50;99.90
2913;DHT22;1466;48.778;9.166;2022-11-12T12:26:30;13.60;99.90
2913;DHT22;1466;48.778;9.166;2022-11-12T12:31:34;13.60;99.90
2913;DHT22;1466;48.778;9.166;2022-11-12T12:34:23;13.60;99.90
2913;DHT22;1466;48.778;9.166;2022-11-12T12:36:58;13.70;99.90
2913;DHT22;1466;48.778;9.166;2022-11-12T12:39:47;13.80;99.90
2913;DHT22;1466;48.778;9.166;2022-11-12T12:42:28;13.80;99.90
2913;DHT22;1466;48.778;9.166;2022-11-12T12:45:01;13.90;99.90
2913;DHT22;1466;48.778;9.166;2022-11-12T12:47:42;13.90;99.90
2913;DHT22;1466;48.778;9.166;2022-11-12T12:50:13;13.90;99.90
2913;DHT22;1466;48.778;9.166;2022-11-12T12:53:14;13.90;99.90
2913;DHT22;1466;48.778;9.166;2022-11-12T12:55:41;13.90;99.90
2913;DHT22;1466;48.778;9.166;2022-11-12T12:58:26;13.80;99.90
2913;DHT22;1466;48.778;9.166;2022-11-12T13:17:45;13.90;99.90
2913;DHT22;1466;48.778;9.166;2022-11-12T13:20:23;13.90;99.90
2913;DHT22;1466;48.778;9.166;2022-11-12T13:22:55;14.00;99.90
2913;DHT22;1466;48.778;9.166;2022-11-12T13:37:43;14.00;99.90
2913;DHT22;1466;48.778;9.166;2022-11-12T13:40:15;14.00;99.90
2913;DHT22;1466;48.778;9.166;2022-11-12T13:42:41;14.10;99.90
2913;DHT22;1466;48.778;9.166;2022-11-12T13:45:13;14.10;99.90
2913;DHT22;1466;48.778;9.166;2022-11-12T13:47:39;14.10;99.90
2913;DHT22;1466;48.778;9.166;2022-11-12T13:50:07;14.10;99.90
2913;DHT22;1466;48.778;9.166;2022-11-12T13:52:34;14.10;99.90
2913;DHT22;1466;48.778;9.166;2022-11-12T13:55:21;14.10;99.90
2913;DHT22;1466;48.778;9.166;2022-11-12T13:57:50;14.10;99.90
2913;DHT22;1466;48.778;9.166;2022-11-12T14:00:28;14.00;99.90
2913;DHT22;1466;48.778;9.166;2022-11-12T14:02:57;14.10;99.90
2913;DHT22;1466;48.778;9.166;2022-11-12T14:05:27;14.10;99.90
2913;DHT22;1466;48.778;9.166;2022-11-12T14:10:56;14.10;99.90
2913;DHT22;1466;48.778;9.166;2022-11-12T14:21:21;14.10;99.90
2913;DHT22;1466;48.778;9.166;2022-11-12T14:23:47;14.10;99.90
2913;DHT22;1466;48.778;9.166;2022-11-12T14:26:33;14.10;99.90
2913;DHT22;1466;48.778;9.166;2022-11-12T14:29:00;14.10;99.90
2913;DHT22;1466;48.778;9.166;2022-11-12T14:31:25;14.00;99.90
2913;DHT22;1466;48.778;9.166;2022-11-12T14:33:51;14.00;99.90
2913;DHT22;1466;48.778;9.166;2022-11-12T14:36:17;14.10;99.90
2913;DHT22;1466;48.778;9.166;2022-11-12T14:38:54;14.00;99.90
2913;DHT22;1466;48.778;9.166;2022-11-12T14:41:27;14.00;99.90
2913;DHT22;1466;48.778;9.166;2022-11-12T14:43:55;13.90;99.90
2913;DHT22;1466;48.778;9.166;2022-11-12T14:52:18;13.90;99.90
2913;DHT22;1466;48.778;9.166;2022-11-12T14:54:53;13.80;99.90
2913;DHT22;1466;48.778;9.166;2022-11-12T14:57:28;13.80;99.90
2913;DHT22;1466;48.778;9.166;2022-11-12T14:59:55;13.80;99.90
2913;DHT22;1466;48.778;9.166;2022-11-12T15:02:28;13.70;99.90
2913;DHT22;1466;48.778;9.166;2022-11-12T15:05:12;13.70;99.90
2913;DHT22;1466;48.778;9.166;2022-11-12T15:10:38;13.60;99.90
2913;DHT22;1466;48.778;9.166;2022-11-12T15:13:39;13.60;99.90
2913;DHT22;1466;48.778;9.166;2022-11-12T15:16:07;13.60;99.90
2913;DHT22;1466;48.778;9.166;2022-11-12T15:18:34;13.60;99.90
2913;DHT22;1466;48.778;9.166;2022-11-12T15:23:46;13.60;99.90
2913;DHT22;1466;48.778;9.166;2022-11-12T15:29:00;13.50;99.90
2913;DHT22;1466;48.778;9.166;2022-11-12T15:31:26;13.50;99.90
2913;DHT22;1466;48.778;9.166;2022-11-12T15:33:52;13.40;99.90
2913;DHT22;1466;48.778;9.166;2022-11-12T15:36:20;13.30;99.90
2913;DHT22;1466;48.778;9.166;2022-11-12T15:38:53;13.30;99.90
2913;DHT22;1466;48.778;9.166;2022-11-12T15:41:25;13.30;99.90
2913;DHT22;1466;48.778;9.166;2022-11-12T15:43:51;13.30;99.90
2913;DHT22;1466;48.778;9.166;2022-11-12T15:46:17;13.30;99.90
2913;DHT22;1466;48.778;9.166;2022-11-12T15:48:42;13.30;99.90
2913;DHT22;1466;48.778;9.166;2022-11-12T15:51:09;13.20;99.90
2913;DHT22;1466;48.778;9.166;2022-11-12T15:53:35;13.20;99.90
2913;DHT22;1466;48.778;9.166;2022-11-12T15:56:01;13.20;99.90
2913;DHT22;1466;48.778;9.166;2022-11-12T15:58:33;13.20;99.90
2913;DHT22;1466;48.778;9.166;2022-11-12T16:00:59;13.10;99.90
2913;DHT22;1466;48.778;9.166;2022-11-12T16:03:25;13.10;99.90
2913;DHT22;1466;48.778;9.166;2022-11-12T16:05:50;13.00;99.90
2913;DHT22;1466;48.778;9.166;2022-11-12T16:08:16;13.00;99.90
2913;DHT22;1466;48.778;9.166;2022-11-12T16:10:43;13.00;99.90
2913;DHT22;1466;48.778;9.166;2022-11-12T16:13:36;13.00;99.90
2913;DHT22;1466;48.778;9.166;2022-11-12T16:16:04;13.00;99.90
2913;DHT22;1466;48.778;9.166;2022-11-12T16:18:30;12.90;99.90
2913;DHT22;1466;48.778;9.166;2022-11-12T16:20:56;12.90;99.90
2913;DHT22;1466;48.778;9.166;2022-11-12T16:23:21;12.90;99.90
2913;DHT22;1466;48.778;9.166;2022-11-12T16:25:47;12.80;99.90
2913;DHT22;1466;48.778;9.166;2022-11-12T16:28:17;12.80;99.90
2913;DHT22;1466;48.778;9.166;2022-11-12T16:30:44;12.70;99.90
2913;DHT22;1466;48.778;9.166;2022-11-12T16:33:11;12.60;99.90
2913;DHT22;1466;48.778;9.166;2022-11-12T16:35:37;12.60;99.90
2913;DHT22;1466;48.778;9.166;2022-11-12T16:38:12;12.50;99.90
2913;DHT22;1466;48.778;9.166;2022-11-12T16:40:42;12.50;99.90
2913;DHT22;1466;48.778;9.166;2022-11-12T16:43:08;12.50;99.90
2913;DHT22;1466;48.778;9.166;2022-11-12T16:45:39;12.50;99.90
2913;DHT22;1466;48.778;9.166;2022-11-12T16:48:16;12.40;99.90
2913;DHT22;1466;48.778;9.166;2022-11-12T16:50:42;12.40;99.90
2913;DHT22;1466;48.778;9.166;2022-11-12T16:53:08;12.30;99.90
2913;DHT22;1466;48.778;9.166;2022-11-12T16:55:33;12.30;99.90
2913;DHT22;1466;48.778;9.166;2022-11-12T16:57:59;12.20;99.90
2913;DHT22;1466;48.778;9.166;2022-11-12T17:00:25;12.20;99.90
2913;DHT22;1466;48.778;9.166;2022-11-12T17:02:50;12.20;99.90
2913;DHT22;1466;48.778;9.166;2022-11-12T17:05:23;12.10;99.90
2913;DHT22;1466;48.778;9.166;2022-11-12T17:07:54;12.00;99.90
2913;DHT22;1466;48.778;9.166;2022-11-12T17:10:20;11.90;99.90
2913;DHT22;1466;48.778;9.166;2022-11-12T17:12:49;11.90;99.90
2913;DHT22;1466;48.778;9.166;2022-11-12T17:15:14;11.90;99.90
2913;DHT22;1466;48.778;9.166;2022-11-12T17:17:40;11.90;99.90
2913;DHT22;1466;48.778;9.166;2022-11-12T17:20:06;11.90;99.90
2913;DHT22;1466;48.778;9.166;2022-11-12T17:22:33;11.90;99.90
2913;DHT22;1466;48.778;9.166;2022-11-12T17:24:58;11.80;99.90
2913;DHT22;1466;48.778;9.166;2022-11-12T17:27:24;11.80;99.90
2913;DHT22;1466;48.778;9.166;2022-11-12T17:29:49;11.70;99.90
2913;DHT22;1466;48.778;9.166;2022-11-12T17:32:15;11.70;99.90
2913;DHT22;1466;48.778;9.166;2022-11-12T17:34:41;11.60;99.90
2913;DHT22;1466;48.778;9.166;2022-11-12T17:37:06;11.60;99.90
2913;DHT22;1466;48.778;9.166;2022-11-12T17:39:32;11.60;99.90
2913;DHT22;1466;48.778;9.166;2022-11-12T17:41:57;11.60;99.90
2913;DHT22;1466;48.778;9.166;2022-11-12T17:44:23;11.50;99.90
2913;DHT22;1466;48.778;9.166;2022-11-12T17:46:48;11.50;99.90
2913;DHT22;1466;48.778;9.166;2022-11-12T17:49:14;11.40;99.90
2913;DHT22;1466;48.778;9.166;2022-11-12T17:51:40;11.50;99.90
2913;DHT22;1466;48.778;9.166;2022-11-12T17:54:06;11.50;99.90
2913;DHT22;1466;48.778;9.166;2022-11-12T17:56:33;11.50;99.90
2913;DHT22;1466;48.778;9.166;2022-11-12T17:59:00;11.50;99.90
2913;DHT22;1466;48.778;9.166;2022-11-12T18:01:27;11.40;99.90
2913;DHT22;1466;48.778;9.166;2022-11-12T18:03:55;11.40;99.90
2913;DHT22;1466;48.778;9.166;2022-11-12T18:06:23;11.30;99.90
2913;DHT22;1466;48.778;9.166;2022-11-12T18:08:56;11.30;99.90
2913;DHT22;1466;48.778;9.166;2022-11-12T18:11:23;11.30;99.90
2913;DHT22;1466;48.778;9.166;2022-11-12T18:13:49;11.20;99.90
2913;DHT22;1466;48.778;9.166;2022-11-12T18:16:20;11.10;99.90
2913;DHT22;1466;48.778;9.166;2022-11-12T18:18:46;11.20;99.90
2913;DHT22;1466;48.778;9.166;2022-11-12T18:21:12;11.30;99.90
2913;DHT22;1466;48.778;9.166;2022-11-12T18:23:39;11.30;99.90
2913;DHT22;1466;48.778;9.166;2022-11-12T18:26:05;11.30;99.90
2913;DHT22;1466;48.778;9.166;2022-11-12T18:28:31;11.30;99.90
2913;DHT22;1466;48.778;9.166;2022-11-12T18:31:05;11.30;99.90